Latest Coastal Weather Observations for Bundaberg

IDQ60701

Issued at 10:12 pm EST Friday 19 December 2014 (issued every 10 minutes, with the page automatically refreshed every 10 minutes)

About coastal observations | Map of coastal stations | Coastal observations for QLD | Marine services | Other Formats
Station Details ID: 039128 Name: BUNDABERG AERO Lat: -24.91 Lon: 152.32 Height: 30.82 m
Data from the previous 72 hours. | See also: Recent months at Bundaberg
Date/Time
EST
Temp

°C
Wind Pressure Rain
since 9am
mm
Weather Cloud Vis
km
Sea
Height
m
Swell
Dir
 
Speed
knots
Gust
knots
hPa Trend Height
m
Period
s
Dir
19/10:00pm 23.7 NNW 6 7 1012.7 - 0.0 - - 10 - - - -
19/09:30pm 24.5 NNE 6 7 1012.6 - 0.0 - - 10 - - - -
19/09:00pm 24.0 NNW 5 6 1012.2 - 0.0 - - 10 - - - -
19/08:30pm 24.7 N 5 6 1012.0 - 0.0 - - 10 - - - -
19/08:00pm 25.0 NNE 6 7 1011.8 - 0.0 - - 10 - - - -
19/07:30pm 25.5 N 6 8 1011.6 - 0.0 - - 10 - - - -
19/07:00pm 25.5 N 7 9 1011.3 - 0.0 - - 10 - - - -
19/06:30pm 26.4 N 8 10 1011.0 - 0.0 - - 10 - - - -
19/06:00pm 28.0 N 8 10 1010.8 - 0.0 - - 10 - - - -
19/05:30pm 30.3 SE 1 3 1010.4 - 0.0 - - 10 - - - -
19/05:00pm 31.0 CALM 0 2 1010.1 - 0.0 - - 10 - - - -
19/04:30pm 30.6 SSW 6 10 1009.9 - 0.0 - - 10 - - - -
19/04:00pm 30.4 WSW 6 8 1009.8 - 0.0 - - 10 - - - -
19/03:30pm 30.3 SW 6 9 1009.9 - 0.0 - - 10 - - - -
19/03:00pm 29.4 S 6 10 1010.2 - 0.0 - Mostly clear 10 - - - -
19/02:30pm 28.5 WSW 5 9 1010.5 - 0.0 - - 10 - - - -
19/02:00pm 27.9 W 6 10 1010.8 - 0.0 - - 10 - - - -
19/01:30pm 27.5 WSW 5 9 1011.2 - 0.0 - - 10 - - - -
19/01:00pm 25.9 WSW 6 9 1011.5 - 0.0 - Partly cloudy 10 - - - -
19/12:30pm 24.8 WSW 5 8 1012.0 - 0.0 - Cloudy 10 - - - -
19/12:00pm 24.2 W 5 8 1012.3 - 0.0 - Cloudy 10 - - - -
19/11:30am 24.1 WNW 6 7 1012.5 - 0.0 - Cloudy 10 - - - -
19/11:00am 23.7 NW 5 6 1012.7 - 0.0 - Partly cloudy 10 - - - -
19/10:30am 23.2 W 4 6 1012.9 - 0.0 - Partly cloudy 10 - - - -
19/10:00am 22.9 SW 6 9 1013.1 - 0.0 - Cloudy 10 - - - -
19/09:30am 23.0 SW 7 9 1013.5 - 0.0 - Partly cloudy 10 - - - -
19/09:00am 23.0 SSW 7 9 1013.3 - 1.8 Showers Cloudy 10 - - - -
19/08:30am 23.0 SSW 8 12 1013.1 - 1.8 - Partly cloudy 10 - - - -
19/08:00am 22.6 SSW 7 10 1012.9 - 1.8 - Partly cloudy 10 - - - -
19/07:30am 21.9 S 5 7 1012.7 - 1.8 - Partly cloudy 10 - - - -
19/07:00am 21.7 SSE 4 6 1012.5 - 1.8 - Partly cloudy 10 - - - -
19/06:30am 21.3 SSE 5 8 1012.3 - 1.8 - Partly cloudy 10 - - - -
19/06:00am 21.1 SSE 5 8 1012.1 - 1.8 Rain Cloudy 10 - - - -
19/05:30am 21.3 S 5 7 1012.4 - 1.4 - Partly cloudy 10 - - - -
19/05:00am 21.4 S 6 8 1012.0 - 1.0 - Partly cloudy 10 - - - -
19/04:30am 21.8 S 6 9 1011.9 - 1.0 - Partly cloudy 10 - - - -
19/04:00am 21.9 S 4 7 1011.8 - 1.0 - Cloudy 10 - - - -
19/03:30am 22.2 S 6 8 1011.8 - 1.0 - Partly cloudy 10 - - - -
19/03:00am 22.5 S 5 9 1011.7 - 1.0 Showers Cloudy 10 - - - -
19/02:30am 22.7 S 5 8 1011.6 - 1.0 - Cloudy 10 - - - -
19/02:00am 23.0 SSW 7 9 1011.9 - 1.0 - Partly cloudy 10 - - - -
19/01:30am 23.2 SSW 6 9 1012.2 - 1.0 - Partly cloudy 10 - - - -
19/01:08am 23.3 SW 7 9 1012.4 - 1.0 - Partly cloudy 10 - - - -
19/01:00am 23.3 SW 7 9 1012.4 - 1.0 - Partly cloudy 10 - - - -
19/12:30am 23.3 WSW 6 8 1012.5 - 1.0 - Cloudy 10 - - - -
19/12:00am 23.1 W 7 9 1012.5 - 1.0 Rain Cloudy 10 - - - -
 
Date/Time
EST
Temp

°C
Wind Pressure Rain
since 9am
mm
Weather Cloud Vis
km
Sea
Height
m
Swell
Dir
 
Speed
knots
Gust
knots
hPa Trend Height
m
Period
s
Dir
18/11:55pm 23.2 W 7 9 1012.4 - 1.0 - Partly cloudy 10 - - - -
18/11:30pm 23.2 W 5 6 1012.2 - 0.8 - Partly cloudy 10 - - - -
18/11:00pm 23.3 WSW 5 8 1012.3 - 0.8 - Cloudy 10 - - - -
18/10:30pm 23.4 WSW 8 11 1012.6 - 0.8 - Cloudy 10 - - - -
18/10:00pm 23.7 WSW 7 11 1012.8 - 0.8 - Partly cloudy 10 - - - -
18/09:30pm 25.2 WNW 7 10 1012.6 - 0.0 - Partly cloudy 10 - - - -
18/09:00pm 25.9 WNW 8 12 1012.2 - 0.0 - Cloudy 10 - - - -
18/08:30pm 25.9 NNW 13 16 1011.4 - 0.0 - Cloudy 10 - - - -
18/08:00pm 26.0 N 15 18 1010.3 - 0.0 - Partly cloudy 10 - - - -
18/07:30pm 26.0 N 14 18 1009.9 - 0.0 - - 10 - - - -
18/07:00pm 26.0 N 14 19 1009.5 - 0.0 - - 10 - - - -
18/06:30pm 26.3 N 15 20 1009.5 - 0.0 - - 10 - - - -
18/06:00pm 26.9 N 16 21 1009.5 - 0.0 - - 10 - - - -
18/05:30pm 26.9 N 17 22 1009.3 - 0.0 - - 10 - - - -
18/05:00pm 27.0 N 18 22 1008.9 - 0.0 - - 10 - - - -
18/04:30pm 27.6 N 18 24 1008.5 - 0.0 - - 10 - - - -
18/04:00pm 28.3 N 19 24 1007.9 - 0.0 - - 10 - - - -
18/03:30pm 29.2 N 21 27 1007.6 - 0.0 - - 10 - - - -
18/03:00pm 29.0 N 21 29 1007.5 - 0.0 - - 10 - - - -
18/02:30pm 29.6 N 20 26 1008.3 - 0.0 - - 10 - - - -
18/02:00pm 29.6 N 19 26 1008.9 - 0.0 - - 10 - - - -
18/01:30pm 29.9 N 19 25 1009.5 - 0.0 - - 10 - - - -
18/01:00pm 30.3 N 18 23 1010.0 - 0.0 - - 10 - - - -
18/12:30pm 29.9 N 18 22 1010.2 - 0.0 - - 10 - - - -
18/12:00pm 30.2 N 16 21 1010.4 - 0.0 - - 10 - - - -
18/11:30am 30.2 N 16 20 1010.9 - 0.0 - Partly cloudy 10 - - - -
18/11:00am 30.1 N 16 19 1011.1 - 0.0 - Partly cloudy 10 - - - -
18/10:30am 30.1 N 15 19 1011.5 - 0.0 - - 10 - - - -
18/10:00am 29.4 N 13 19 1011.7 - 0.0 - - 10 - - - -
18/09:30am 29.4 N 14 18 1011.8 - 0.0 - Partly cloudy 10 - - - -
18/09:00am 29.0 N 13 18 1012.0 - 0.4 - Partly cloudy 10 - - - -
18/08:30am 27.6 N 14 17 1012.0 - 0.4 - Partly cloudy 10 - - - -
18/08:00am 28.2 NNW 14 17 1011.6 - 0.4 - Partly cloudy 10 - - - -
18/07:30am 27.2 N 12 15 1011.4 - 0.4 - Partly cloudy 10 - - - -
18/07:24am 27.2 N 12 14 1011.4 - 0.4 - Partly cloudy 10 - - - -
18/07:00am 27.5 NNW 11 14 1011.4 - 0.4 - Partly cloudy 10 - - - -
18/06:47am 27.4 N 10 13 1011.4 - 0.4 - Partly cloudy 10 - - - -
18/06:30am 26.9 NNW 9 13 1011.1 - 0.4 - Partly cloudy 10 - - - -
18/06:00am 26.0 NNW 10 14 1011.0 - 0.4 - Mostly clear 10 - - - -
18/05:31am 25.8 NNW 11 15 1010.1 - 0.4 - Partly cloudy 10 - - - -
18/05:30am 25.8 NNW 11 15 1010.1 - 0.4 - Partly cloudy 10 - - - -
18/05:00am 25.8 NNW 8 11 1009.8 - 0.4 - Cloudy 10 - - - -
18/04:30am 25.8 NNW 12 15 1009.0 - 0.4 - Partly cloudy 10 - - - -
18/04:15am 25.7 N 12 17 1008.3 - 0.4 - Partly cloudy 10 - - - -
18/04:00am 25.7 NNW 13 17 1007.9 - 0.4 - Partly cloudy 10 - - - -
18/03:30am 25.7 N 9 13 1007.7 - 0.4 - - 10 - - - -
18/03:00am 25.6 N 13 16 1007.6 - 0.4 - Mostly cloudy 10 - - - -
18/02:30am 25.5 N 11 13 1008.0 - 0.4 - Partly cloudy 10 - - - -
18/02:00am 25.6 N 10 13 1008.4 - 0.4 - Partly cloudy 10 - - - -
18/01:30am 25.5 N 11 13 1008.6 - 0.4 - - 10 - - - -
18/01:00am 25.7 N 11 13 1008.8 - 0.4 - - 10 - - - -
18/12:30am 25.6 NNE 10 12 1009.4 - 0.4 - - 10 - - - -
18/12:00am 25.6 NE 8 10 1010.1 - 0.4 - Cloudy 10 - - - -
 
Date/Time
EST
Temp

°C
Wind Pressure Rain
since 9am
mm
Weather Cloud Vis
km
Sea
Height
m
Swell
Dir
 
Speed
knots
Gust
knots
hPa Trend Height
m
Period
s
Dir
17/11:30pm 25.1 E 8 10 1010.1 - 0.4 - Partly cloudy 10 - - - -
17/11:00pm 24.9 E 7 9 1010.5 - 0.4 - Partly cloudy 10 - - - -
17/10:30pm 25.8 E 7 10 1010.3 - 0.4 - - 10 - - - -
17/10:00pm 26.1 E 7 9 1010.2 - 0.4 - Partly cloudy 10 - - - -
17/09:45pm 26.3 SE 9 15 1010.1 - 0.4 - Partly cloudy 10 - - - -
17/09:31pm 26.1 SSE 11 16 1009.9 - 0.4 - Partly cloudy 10 - - - -
17/09:30pm 26.1 SSE 11 16 1009.9 - 0.4 - Partly cloudy 10 - - - -
17/09:00pm 26.0 N 9 13 1008.5 - 0.4 - Mostly clear 10 - - - -
17/08:30pm 25.9 NNW 11 16 1007.9 - 0.4 - Partly cloudy 10 - - - -
17/08:00pm 26.1 N 15 19 1006.6 - 0.4 - Partly cloudy 10 - - - -
17/07:30pm 26.1 NNW 11 15 1006.5 - 0.4 - Partly cloudy 10 - - - -
17/07:00pm 26.8 N 15 19 1007.5 - 0.0 - Partly cloudy 10 - - - -
17/06:30pm 27.1 N 13 17 1006.5 - 0.0 - - 10 - - - -
17/06:00pm 27.5 N 15 20 1006.4 - 0.0 - - 10 - - - -
17/05:30pm 28.4 N 14 19 1005.6 - 0.0 - - 10 - - - -
17/05:00pm 29.3 N 15 20 1004.9 - 0.0 - - 10 - - - -
17/04:30pm 30.0 N 16 19 1004.7 - 0.0 - - 10 - - - -
17/04:00pm 30.7 N 16 20 1004.7 - 0.0 - - 10 - - - -
17/03:30pm 30.9 N 14 17 1004.8 - 0.0 - - 10 - - - -
17/03:00pm 31.4 N 14 18 1005.0 - 0.0 - - 10 - - - -
17/02:30pm 32.0 N 13 16 1005.4 - 0.0 - - 10 - - - -
17/02:00pm 32.3 N 13 16 1005.8 - 0.0 - - 10 - - - -
17/01:30pm 32.5 N 12 16 1006.0 - 0.0 - - 10 - - - -
17/01:00pm 31.9 N 12 16 1006.4 - 0.0 - - 10 - - - -
17/12:30pm 32.5 N 11 15 1006.9 - 0.0 - - 10 - - - -
17/12:00pm 31.7 N 9 13 1007.2 - 0.0 - - 10 - - - -
17/11:30am 30.7 NNW 8 13 1007.5 - 0.0 - - 10 - - - -
17/11:00am 30.6 NW 9 13 1008.0 - 0.0 - - 10 - - - -
17/10:30am 30.3 NW 10 13 1008.2 - 0.0 - - 10 - - - -
17/10:00am 30.2 NNW 10 13 1008.2 - 0.0 - - 10 - - - -
17/09:30am 28.5 NNW 11 13 1008.0 - 0.0 - - 10 - - - -
17/09:00am 28.2 NNW 9 12 1008.0 - 0.0 - - 10 - - - -
17/08:30am 27.5 NW 10 14 1008.3 - 0.0 - - 10 - - - -
17/08:00am 26.8 NNW 9 11 1008.5 - 0.0 - - 10 - - - -
17/07:30am 25.8 NW 7 9 1008.4 - 0.0 - - 10 - - - -
17/07:00am 24.8 WNW 3 6 1007.9 - 0.0 - - 10 - - - -
17/06:30am 24.4 WNW 7 8 1008.1 - 0.0 - Partly cloudy 10 - - - -
17/06:00am 24.5 WNW 3 5 1007.5 - 0.0 - Partly cloudy 10 - - - -
17/05:30am 24.5 WNW 5 6 1007.0 - 0.0 - - 10 - - - -
17/05:00am 24.5 N 7 10 1006.3 - 0.0 - - 10 - - - -
17/04:30am 24.3 N 8 11 1005.6 - 0.0 - - 10 - - - -
17/04:00am 24.0 N 9 13 1005.5 - 0.0 - - 10 - - - -
17/03:30am 24.0 N 9 12 1005.8 - 0.0 - - 10 - - - -
17/03:00am 24.0 N 8 10 1006.3 - 0.0 - Mostly clear 10 - - - -
17/02:30am 23.9 NNW 5 6 1007.1 - 0.0 - Partly cloudy 10 - - - -
17/02:03am 24.4 WSW 5 7 1007.6 - 0.0 - Cloudy 10 - - - -
17/02:00am 24.5 WSW 5 8 1007.6 - 0.0 - Cloudy 10 - - - -
17/01:30am 24.5 WSW 5 7 1007.9 - 0.0 - Partly cloudy 10 - - - -
17/01:00am 24.9 WNW 9 11 1007.9 - 0.0 - Partly cloudy 10 - - - -
17/12:30am 24.8 NNW 11 14 1006.8 - 0.0 - Partly cloudy 10 - - - -
17/12:00am 24.8 NNW 10 13 1007.1 - 0.0 - Mostly clear 10 - - - -
 
Date/Time
EST
Temp

°C
Wind Pressure Rain
since 9am
mm
Weather Cloud Vis
km
Sea
Height
m
Swell
Dir
 
Speed
knots
Gust
knots
hPa Trend Height
m
Period
s
Dir
16/11:30pm 25.2 N 11 14 1007.3 - 0.0 - Partly cloudy 10 - - - -
16/11:00pm 25.3 N 12 15 1007.7 - 0.0 - Partly cloudy 10 - - - -
16/10:30pm 25.3 N 14 17 1007.8 - 0.0 - - 10 - - - -

Other Formats:

Comma delimited format used in spreadsheet applications
http://www.bom.gov.au/fwo/IDQ60701/IDQ60701.94387.axf

JavaScript Object Notation format (JSON) in row-major order
http://www.bom.gov.au/fwo/IDQ60701/IDQ60701.94387.json